sensor_id;sensor_type;location;lat;lon;timestamp;pressure;altitude;pressure_sealevel;temperature;humidity
29045;BME280;16133;49.486;12.176;2023-03-15T00:01:56;96446.31;;;0.46;100.00
29045;BME280;16133;49.486;12.176;2023-03-15T00:04:21;96452.63;;;0.44;100.00
29045;BME280;16133;49.486;12.176;2023-03-15T00:06:49;96456.75;;;0.46;100.00
29045;BME280;16133;49.486;12.176;2023-03-15T00:09:14;96455.25;;;0.54;100.00
29045;BME280;16133;49.486;12.176;2023-03-15T00:11:40;96460.53;;;0.62;100.00
29045;BME280;16133;49.486;12.176;2023-03-15T00:14:06;96469.25;;;0.53;100.00
29045;BME280;16133;49.486;12.176;2023-03-15T00:16:31;96457.56;;;0.47;100.00
29045;BME280;16133;49.486;12.176;2023-03-15T00:18:57;96456.75;;;0.46;100.00
29045;BME280;16133;49.486;12.176;2023-03-15T00:21:22;96461.16;;;0.46;100.00
29045;BME280;16133;49.486;12.176;2023-03-15T00:23:48;96457.72;;;0.45;100.00
29045;BME280;16133;49.486;12.176;2023-03-15T00:26:13;96462.25;;;0.43;100.00
29045;BME280;16133;49.486;12.176;2023-03-15T00:28:39;96455.38;;;0.42;100.00
29045;BME280;16133;49.486;12.176;2023-03-15T00:31:16;96454.84;;;0.39;100.00
29045;BME280;16133;49.486;12.176;2023-03-15T00:33:43;96448.66;;;0.40;100.00
29045;BME280;16133;49.486;12.176;2023-03-15T00:36:09;96458.69;;;0.35;100.00
29045;BME280;16133;49.486;12.176;2023-03-15T00:38:37;96456.22;;;0.33;100.00
29045;BME280;16133;49.486;12.176;2023-03-15T00:41:07;96458.28;;;0.39;100.00
29045;BME280;16133;49.486;12.176;2023-03-15T00:43:33;96465.84;;;0.33;100.00
29045;BME280;16133;49.486;12.176;2023-03-15T00:45:59;96473.53;;;0.34;100.00
29045;BME280;16133;49.486;12.176;2023-03-15T00:48:25;96487.00;;;0.20;100.00
29045;BME280;16133;49.486;12.176;2023-03-15T00:50:50;96491.38;;;0.29;100.00
29045;BME280;16133;49.486;12.176;2023-03-15T00:53:16;96499.88;;;0.31;100.00
29045;BME280;16133;49.486;12.176;2023-03-15T00:55:41;96496.75;;;0.37;100.00
29045;BME280;16133;49.486;12.176;2023-03-15T00:58:07;96503.59;;;0.38;100.00
29045;BME280;16133;49.486;12.176;2023-03-15T01:00:33;96505.94;;;0.41;100.00
29045;BME280;16133;49.486;12.176;2023-03-15T01:02:58;96500.31;;;0.46;100.00
29045;BME280;16133;49.486;12.176;2023-03-15T01:05:23;96505.09;;;0.51;100.00
29045;BME280;16133;49.486;12.176;2023-03-15T01:07:50;96507.44;;;0.54;100.00
29045;BME280;16133;49.486;12.176;2023-03-15T01:10:17;96508.09;;;0.56;100.00
29045;BME280;16133;49.486;12.176;2023-03-15T01:12:42;96497.38;;;0.59;100.00
29045;BME280;16133;49.486;12.176;2023-03-15T01:15:12;96508.34;;;0.62;100.00
29045;BME280;16133;49.486;12.176;2023-03-15T01:17:38;96511.66;;;0.64;100.00
29045;BME280;16133;49.486;12.176;2023-03-15T01:20:03;96515.78;;;0.67;100.00
29045;BME280;16133;49.486;12.176;2023-03-15T01:22:29;96507.81;;;0.68;100.00
29045;BME280;16133;49.486;12.176;2023-03-15T01:24:55;96482.00;;;0.56;100.00
29045;BME280;16133;49.486;12.176;2023-03-15T01:27:20;96509.31;;;0.71;100.00
29045;BME280;16133;49.486;12.176;2023-03-15T01:29:46;96513.69;;;0.70;100.00
29045;BME280;16133;49.486;12.176;2023-03-15T01:32:11;96511.91;;;0.71;100.00
29045;BME280;16133;49.486;12.176;2023-03-15T01:34:37;96520.72;;;0.70;100.00
29045;BME280;16133;49.486;12.176;2023-03-15T01:37:02;96518.09;;;0.70;100.00
29045;BME280;16133;49.486;12.176;2023-03-15T01:39:29;96517.44;;;0.68;100.00
29045;BME280;16133;49.486;12.176;2023-03-15T01:41:55;96523.91;;;0.64;100.00
29045;BME280;16133;49.486;12.176;2023-03-15T01:44:20;96528.28;;;0.63;100.00
29045;BME280;16133;49.486;12.176;2023-03-15T01:46:46;96531.19;;;0.60;100.00
29045;BME280;16133;49.486;12.176;2023-03-15T01:49:31;96540.09;;;0.58;100.00
29045;BME280;16133;49.486;12.176;2023-03-15T01:52:01;96539.13;;;0.59;100.00
29045;BME280;16133;49.486;12.176;2023-03-15T01:54:40;96534.88;;;0.58;100.00
29045;BME280;16133;49.486;12.176;2023-03-15T01:57:32;96540.78;;;0.60;100.00
29045;BME280;16133;49.486;12.176;2023-03-15T02:00:07;96546.84;;;0.60;100.00
29045;BME280;16133;49.486;12.176;2023-03-15T02:02:38;96544.34;;;0.59;100.00
29045;BME280;16133;49.486;12.176;2023-03-15T02:05:10;96550.69;;;0.56;100.00
29045;BME280;16133;49.486;12.176;2023-03-15T02:07:38;96555.09;;;0.56;100.00
29045;BME280;16133;49.486;12.176;2023-03-15T02:10:09;96559.34;;;0.57;100.00
29045;BME280;16133;49.486;12.176;2023-03-15T02:12:39;96565.25;;;0.59;100.00
29045;BME280;16133;49.486;12.176;2023-03-15T02:15:06;96565.50;;;0.65;100.00
29045;BME280;16133;49.486;12.176;2023-03-15T02:17:39;96568.81;;;0.67;100.00
29045;BME280;16133;49.486;12.176;2023-03-15T02:27:51;96590.53;;;0.68;100.00
29045;BME280;16133;49.486;12.176;2023-03-15T02:30:17;96594.63;;;0.70;100.00
29045;BME280;16133;49.486;12.176;2023-03-15T02:32:43;96611.28;;;0.60;100.00
29045;BME280;16133;49.486;12.176;2023-03-15T02:35:09;96615.25;;;0.54;100.00
29045;BME280;16133;49.486;12.176;2023-03-15T02:37:35;96631.44;;;0.58;100.00
29045;BME280;16133;49.486;12.176;2023-03-15T02:40:00;96632.00;;;0.52;100.00
29045;BME280;16133;49.486;12.176;2023-03-15T02:42:25;96638.59;;;0.56;100.00
29045;BME280;16133;49.486;12.176;2023-03-15T02:44:52;96633.38;;;0.65;100.00
29045;BME280;16133;49.486;12.176;2023-03-15T02:47:26;96647.97;;;0.68;100.00
29045;BME280;16133;49.486;12.176;2023-03-15T02:49:52;96653.03;;;0.60;100.00
29045;BME280;16133;49.486;12.176;2023-03-15T02:52:18;96652.34;;;0.48;100.00
29045;BME280;16133;49.486;12.176;2023-03-15T02:54:44;96650.69;;;0.37;100.00
29045;BME280;16133;49.486;12.176;2023-03-15T02:57:14;96660.13;;;0.29;100.00
29045;BME280;16133;49.486;12.176;2023-03-15T02:59:40;96660.56;;;0.34;100.00
29045;BME280;16133;49.486;12.176;2023-03-15T03:02:09;96674.84;;;0.30;100.00
29045;BME280;16133;49.486;12.176;2023-03-15T03:04:38;96673.84;;;0.21;100.00
29045;BME280;16133;49.486;12.176;2023-03-15T03:07:04;96684.69;;;0.17;100.00
29045;BME280;16133;49.486;12.176;2023-03-15T03:09:29;96669.16;;;0.06;100.00
29045;BME280;16133;49.486;12.176;2023-03-15T03:11:55;96690.44;;;0.11;100.00
29045;BME280;16133;49.486;12.176;2023-03-15T03:14:20;96688.09;;;0.08;100.00
29045;BME280;16133;49.486;12.176;2023-03-15T03:16:49;96690.13;;;0.04;100.00
29045;BME280;16133;49.486;12.176;2023-03-15T03:19:14;96694.78;;;0.00;100.00
29045;BME280;16133;49.486;12.176;2023-03-15T03:21:40;96700.16;;;-0.01;100.00
29045;BME280;16133;49.486;12.176;2023-03-15T03:24:09;96710.44;;;0.00;100.00
29045;BME280;16133;49.486;12.176;2023-03-15T03:26:35;96718.97;;;0.03;100.00
29045;BME280;16133;49.486;12.176;2023-03-15T03:29:02;96722.13;;;0.06;100.00
29045;BME280;16133;49.486;12.176;2023-03-15T03:31:30;96727.22;;;0.08;100.00
29045;BME280;16133;49.486;12.176;2023-03-15T03:33:58;96725.41;;;0.08;100.00
29045;BME280;16133;49.486;12.176;2023-03-15T03:36:23;96733.25;;;0.08;100.00
29045;BME280;16133;49.486;12.176;2023-03-15T03:38:49;96736.56;;;0.10;100.00
29045;BME280;16133;49.486;12.176;2023-03-15T03:41:15;96734.38;;;0.15;100.00
29045;BME280;16133;49.486;12.176;2023-03-15T03:43:41;96735.75;;;0.19;100.00
29045;BME280;16133;49.486;12.176;2023-03-15T03:46:07;96745.94;;;0.22;100.00
29045;BME280;16133;49.486;12.176;2023-03-15T03:48:32;96739.50;;;0.26;100.00
29045;BME280;16133;49.486;12.176;2023-03-15T03:50:58;96742.66;;;0.30;100.00
29045;BME280;16133;49.486;12.176;2023-03-15T03:53:23;96742.53;;;0.31;100.00
29045;BME280;16133;49.486;12.176;2023-03-15T03:55:49;96752.00;;;0.32;100.00
29045;BME280;16133;49.486;12.176;2023-03-15T03:58:14;96757.22;;;0.32;100.00
29045;BME280;16133;49.486;12.176;2023-03-15T04:00:40;96762.56;;;0.31;100.00
29045;BME280;16133;49.486;12.176;2023-03-15T04:03:08;96779.06;;;0.31;100.00
29045;BME280;16133;49.486;12.176;2023-03-15T04:05:34;96781.66;;;0.31;100.00
29045;BME280;16133;49.486;12.176;2023-03-15T04:08:00;96792.53;;;0.36;100.00
29045;BME280;16133;49.486;12.176;2023-03-15T04:10:25;96795.69;;;0.40;100.00
29045;BME280;16133;49.486;12.176;2023-03-15T04:12:57;96796.00;;;0.46;100.00
29045;BME280;16133;49.486;12.176;2023-03-15T04:15:23;96800.00;;;0.51;100.00
29045;BME280;16133;49.486;12.176;2023-03-15T04:17:50;96797.53;;;0.49;100.00
29045;BME280;16133;49.486;12.176;2023-03-15T04:20:23;96793.25;;;0.48;100.00
29045;BME280;16133;49.486;12.176;2023-03-15T04:22:48;96787.47;;;0.44;100.00
29045;BME280;16133;49.486;12.176;2023-03-15T04:25:18;96801.31;;;0.35;100.00
29045;BME280;16133;49.486;12.176;2023-03-15T04:27:44;96810.19;;;0.23;100.00
29045;BME280;16133;49.486;12.176;2023-03-15T04:30:10;96814.81;;;0.10;100.00
29045;BME280;16133;49.486;12.176;2023-03-15T04:32:36;96840.69;;;0.02;100.00
29045;BME280;16133;49.486;12.176;2023-03-15T04:35:01;96851.25;;;0.00;100.00
29045;BME280;16133;49.486;12.176;2023-03-15T04:37:28;96858.00;;;0.03;100.00
29045;BME280;16133;49.486;12.176;2023-03-15T04:39:56;96858.56;;;0.07;100.00
29045;BME280;16133;49.486;12.176;2023-03-15T04:42:22;96864.84;;;0.04;100.00
29045;BME280;16133;49.486;12.176;2023-03-15T04:44:47;96869.38;;;0.02;100.00
29045;BME280;16133;49.486;12.176;2023-03-15T04:47:12;96880.75;;;0.01;100.00
29045;BME280;16133;49.486;12.176;2023-03-15T04:49:38;96881.34;;;0.05;100.00
29045;BME280;16133;49.486;12.176;2023-03-15T04:52:03;96878.22;;;0.11;100.00
29045;BME280;16133;49.486;12.176;2023-03-15T04:54:28;96890.91;;;0.15;100.00
29045;BME280;16133;49.486;12.176;2023-03-15T04:56:54;96894.56;;;0.33;100.00
29045;BME280;16133;49.486;12.176;2023-03-15T04:59:19;96898.94;;;0.33;100.00
29045;BME280;16133;49.486;12.176;2023-03-15T05:01:45;96908.84;;;0.39;100.00
29045;BME280;16133;49.486;12.176;2023-03-15T05:04:10;96923.00;;;0.16;100.00
29045;BME280;16133;49.486;12.176;2023-03-15T05:06:37;96923.22;;;0.03;100.00
29045;BME280;16133;49.486;12.176;2023-03-15T05:09:03;96934.91;;;-0.12;100.00
29045;BME280;16133;49.486;12.176;2023-03-15T05:11:28;96941.38;;;-0.27;100.00
29045;BME280;16133;49.486;12.176;2023-03-15T05:13:53;96952.06;;;-0.41;100.00
29045;BME280;16133;49.486;12.176;2023-03-15T05:16:19;96950.69;;;-0.57;100.00
29045;BME280;16133;49.486;12.176;2023-03-15T05:18:44;96961.03;;;-0.66;100.00
29045;BME280;16133;49.486;12.176;2023-03-15T05:21:10;96967.78;;;-0.75;100.00
29045;BME280;16133;49.486;12.176;2023-03-15T05:23:37;96976.53;;;-0.87;100.00
29045;BME280;16133;49.486;12.176;2023-03-15T05:26:02;96985.19;;;-0.86;100.00
29045;BME280;16133;49.486;12.176;2023-03-15T05:28:28;96993.00;;;-0.98;100.00
29045;BME280;16133;49.486;12.176;2023-03-15T05:30:53;96995.72;;;-0.99;100.00
29045;BME280;16133;49.486;12.176;2023-03-15T05:33:19;97005.44;;;-1.01;100.00
29045;BME280;16133;49.486;12.176;2023-03-15T05:35:45;97006.13;;;-1.10;100.00
29045;BME280;16133;49.486;12.176;2023-03-15T05:38:12;97008.97;;;-1.13;100.00
29045;BME280;16133;49.486;12.176;2023-03-15T05:40:44;97026.59;;;-1.17;100.00
29045;BME280;16133;49.486;12.176;2023-03-15T05:43:10;97021.88;;;-1.23;100.00
29045;BME280;16133;49.486;12.176;2023-03-15T05:45:36;97031.44;;;-1.34;100.00
29045;BME280;16133;49.486;12.176;2023-03-15T05:48:03;97039.94;;;-1.43;100.00
29045;BME280;16133;49.486;12.176;2023-03-15T05:50:28;97048.06;;;-1.48;100.00
29045;BME280;16133;49.486;12.176;2023-03-15T05:52:54;97053.41;;;-1.50;100.00
29045;BME280;16133;49.486;12.176;2023-03-15T05:55:21;97063.09;;;-1.52;100.00
29045;BME280;16133;49.486;12.176;2023-03-15T05:57:47;97066.75;;;-1.54;100.00
29045;BME280;16133;49.486;12.176;2023-03-15T06:00:12;97067.34;;;-1.51;100.00
29045;BME280;16133;49.486;12.176;2023-03-15T06:02:40;97066.78;;;-1.43;100.00
29045;BME280;16133;49.486;12.176;2023-03-15T06:05:06;97064.78;;;-1.39;100.00
29045;BME280;16133;49.486;12.176;2023-03-15T06:07:31;97067.16;;;-1.36;100.00
29045;BME280;16133;49.486;12.176;2023-03-15T06:09:57;97066.22;;;-1.35;100.00
29045;BME280;16133;49.486;12.176;2023-03-15T06:12:22;97074.72;;;-1.33;100.00
29045;BME280;16133;49.486;12.176;2023-03-15T06:14:47;97070.47;;;-1.34;100.00
29045;BME280;16133;49.486;12.176;2023-03-15T06:17:13;97078.88;;;-1.31;100.00
29045;BME280;16133;49.486;12.176;2023-03-15T06:19:38;97077.25;;;-1.21;100.00
29045;BME280;16133;49.486;12.176;2023-03-15T06:22:03;97069.59;;;-1.11;100.00
29045;BME280;16133;49.486;12.176;2023-03-15T06:24:29;97063.53;;;-1.12;100.00
29045;BME280;16133;49.486;12.176;2023-03-15T06:26:54;97068.28;;;-1.06;100.00
29045;BME280;16133;49.486;12.176;2023-03-15T06:29:20;97066.50;;;-1.05;100.00
29045;BME280;16133;49.486;12.176;2023-03-15T06:31:46;97067.44;;;-1.06;100.00
29045;BME280;16133;49.486;12.176;2023-03-15T06:34:14;97071.59;;;-1.04;100.00
29045;BME280;16133;49.486;12.176;2023-03-15T06:36:39;97069.59;;;-1.00;100.00
29045;BME280;16133;49.486;12.176;2023-03-15T06:39:07;97077.16;;;-0.97;100.00
29045;BME280;16133;49.486;12.176;2023-03-15T06:41:32;97067.78;;;-1.00;100.00
29045;BME280;16133;49.486;12.176;2023-03-15T06:43:57;97088.03;;;-0.92;100.00
29045;BME280;16133;49.486;12.176;2023-03-15T06:46:23;97097.53;;;-0.91;100.00
29045;BME280;16133;49.486;12.176;2023-03-15T06:48:48;97092.06;;;-0.88;100.00
29045;BME280;16133;49.486;12.176;2023-03-15T06:51:13;97088.28;;;-0.84;100.00
29045;BME280;16133;49.486;12.176;2023-03-15T06:53:39;97094.09;;;-0.80;100.00
29045;BME280;16133;49.486;12.176;2023-03-15T06:56:04;97091.38;;;-0.79;100.00
29045;BME280;16133;49.486;12.176;2023-03-15T06:58:30;97094.47;;;-0.74;100.00
29045;BME280;16133;49.486;12.176;2023-03-15T07:00:55;97092.09;;;-0.66;100.00
29045;BME280;16133;49.486;12.176;2023-03-15T07:03:21;97091.38;;;-0.57;100.00
29045;BME280;16133;49.486;12.176;2023-03-15T07:05:48;97091.13;;;-0.54;100.00
29045;BME280;16133;49.486;12.176;2023-03-15T07:08:17;97095.88;;;-0.47;100.00
29045;BME280;16133;49.486;12.176;2023-03-15T07:10:42;97103.94;;;-0.39;100.00
29045;BME280;16133;49.486;12.176;2023-03-15T07:13:07;97099.66;;;-0.29;100.00
29045;BME280;16133;49.486;12.176;2023-03-15T07:15:35;97095.84;;;-0.25;100.00
29045;BME280;16133;49.486;12.176;2023-03-15T07:18:01;97101.06;;;-0.14;100.00
29045;BME280;16133;49.486;12.176;2023-03-15T07:20:27;97108.16;;;-0.05;100.00
29045;BME280;16133;49.486;12.176;2023-03-15T07:22:52;97104.59;;;-0.04;100.00
29045;BME280;16133;49.486;12.176;2023-03-15T07:25:17;97105.28;;;0.09;100.00
29045;BME280;16133;49.486;12.176;2023-03-15T07:27:51;97105.38;;;0.19;100.00
29045;BME280;16133;49.486;12.176;2023-03-15T07:30:18;97096.69;;;0.29;100.00
29045;BME280;16133;49.486;12.176;2023-03-15T07:32:43;97100.41;;;0.47;100.00
29045;BME280;16133;49.486;12.176;2023-03-15T07:35:09;97094.75;;;0.63;100.00
29045;BME280;16133;49.486;12.176;2023-03-15T07:37:34;97092.03;;;0.85;100.00
29045;BME280;16133;49.486;12.176;2023-03-15T07:40:00;97092.97;;;1.05;100.00
29045;BME280;16133;49.486;12.176;2023-03-15T07:42:36;97051.94;;;0.96;100.00
29045;BME280;16133;49.486;12.176;2023-03-15T07:45:03;97085.31;;;1.34;100.00
29045;BME280;16133;49.486;12.176;2023-03-15T07:47:29;97079.16;;;1.44;100.00
29045;BME280;16133;49.486;12.176;2023-03-15T07:49:55;97068.44;;;1.57;100.00
29045;BME280;16133;49.486;12.176;2023-03-15T07:52:20;97069.44;;;1.56;100.00
29045;BME280;16133;49.486;12.176;2023-03-15T07:54:46;97062.00;;;1.61;100.00
29045;BME280;16133;49.486;12.176;2023-03-15T07:57:12;97059.75;;;1.47;100.00
29045;BME280;16133;49.486;12.176;2023-03-15T07:59:37;97071.88;;;1.48;100.00
29045;BME280;16133;49.486;12.176;2023-03-15T08:02:03;97081.06;;;1.42;100.00
29045;BME280;16133;49.486;12.176;2023-03-15T08:04:28;97098.31;;;1.24;100.00
29045;BME280;16133;49.486;12.176;2023-03-15T08:06:54;97098.13;;;1.16;100.00
29045;BME280;16133;49.486;12.176;2023-03-15T08:09:19;97111.72;;;1.10;100.00
29045;BME280;16133;49.486;12.176;2023-03-15T08:11:45;97116.59;;;1.04;100.00
29045;BME280;16133;49.486;12.176;2023-03-15T08:14:10;97120.06;;;1.04;100.00
29045;BME280;16133;49.486;12.176;2023-03-15T08:16:35;97121.72;;;1.05;100.00
29045;BME280;16133;49.486;12.176;2023-03-15T08:19:01;97125.47;;;1.12;100.00
29045;BME280;16133;49.486;12.176;2023-03-15T08:21:26;97128.91;;;1.13;100.00
29045;BME280;16133;49.486;12.176;2023-03-15T08:23:51;97142.69;;;1.15;100.00
29045;BME280;16133;49.486;12.176;2023-03-15T08:26:17;97140.38;;;1.21;100.00
29045;BME280;16133;49.486;12.176;2023-03-15T08:28:42;97137.34;;;1.47;100.00
29045;BME280;16133;49.486;12.176;2023-03-15T08:31:08;97114.63;;;1.77;100.00
29045;BME280;16133;49.486;12.176;2023-03-15T08:33:34;97104.38;;;1.95;100.00
29045;BME280;16133;49.486;12.176;2023-03-15T08:35:59;97105.50;;;2.02;100.00
29045;BME280;16133;49.486;12.176;2023-03-15T08:38:26;97101.63;;;1.97;100.00
29045;BME280;16133;49.486;12.176;2023-03-15T08:40:56;97098.59;;;1.91;100.00
29045;BME280;16133;49.486;12.176;2023-03-15T08:43:21;97106.41;;;1.82;100.00
29045;BME280;16133;49.486;12.176;2023-03-15T08:45:47;97102.84;;;1.83;100.00
29045;BME280;16133;49.486;12.176;2023-03-15T08:48:13;97108.34;;;1.80;100.00
29045;BME280;16133;49.486;12.176;2023-03-15T08:50:39;97120.25;;;1.73;100.00
29045;BME280;16133;49.486;12.176;2023-03-15T08:53:04;97114.91;;;1.74;100.00
29045;BME280;16133;49.486;12.176;2023-03-15T08:55:29;97114.97;;;1.84;100.00
29045;BME280;16133;49.486;12.176;2023-03-15T08:57:55;97129.84;;;1.93;100.00
29045;BME280;16133;49.486;12.176;2023-03-15T09:00:20;97123.66;;;1.94;100.00
29045;BME280;16133;49.486;12.176;2023-03-15T09:02:48;97126.28;;;2.04;100.00
29045;BME280;16133;49.486;12.176;2023-03-15T09:05:14;97135.16;;;2.22;100.00
29045;BME280;16133;49.486;12.176;2023-03-15T09:07:40;97128.16;;;2.61;100.00
29045;BME280;16133;49.486;12.176;2023-03-15T09:10:08;97133.00;;;2.84;100.00
29045;BME280;16133;49.486;12.176;2023-03-15T09:12:33;97142.34;;;3.16;100.00
29045;BME280;16133;49.486;12.176;2023-03-15T09:14:58;97148.75;;;3.60;100.00
29045;BME280;16133;49.486;12.176;2023-03-15T09:17:24;97208.06;;;3.80;100.00
29045;BME280;16133;49.486;12.176;2023-03-15T09:19:49;97227.78;;;3.84;100.00
29045;BME280;16133;49.486;12.176;2023-03-15T09:22:16;97228.06;;;4.27;100.00
29045;BME280;16133;49.486;12.176;2023-03-15T09:24:42;97214.25;;;4.53;100.00
29045;BME280;16133;49.486;12.176;2023-03-15T09:27:07;97224.50;;;4.73;100.00
29045;BME280;16133;49.486;12.176;2023-03-15T09:29:33;97228.09;;;4.72;100.00
29045;BME280;16133;49.486;12.176;2023-03-15T09:31:58;97244.91;;;4.62;100.00
29045;BME280;16133;49.486;12.176;2023-03-15T09:34:26;97241.72;;;4.41;100.00
29045;BME280;16133;49.486;12.176;2023-03-15T09:36:51;97242.88;;;4.28;100.00
29045;BME280;16133;49.486;12.176;2023-03-15T09:39:19;97280.91;;;4.15;100.00
29045;BME280;16133;49.486;12.176;2023-03-15T09:41:49;97305.28;;;3.88;100.00
29045;BME280;16133;49.486;12.176;2023-03-15T09:44:36;97318.84;;;3.74;100.00
29045;BME280;16133;49.486;12.176;2023-03-15T09:55:23;97401.53;;;3.40;100.00
29045;BME280;16133;49.486;12.176;2023-03-15T09:57:52;97378.91;;;3.58;100.00
29045;BME280;16133;49.486;12.176;2023-03-15T10:00:25;97401.81;;;3.36;100.00
29045;BME280;16133;49.486;12.176;2023-03-15T10:02:55;97386.63;;;3.50;100.00
29045;BME280;16133;49.486;12.176;2023-03-15T10:05:31;97399.91;;;3.48;100.00
29045;BME280;16133;49.486;12.176;2023-03-15T10:07:56;97387.47;;;3.41;100.00
29045;BME280;16133;49.486;12.176;2023-03-15T10:10:30;97398.59;;;3.23;100.00
29045;BME280;16133;49.486;12.176;2023-03-15T10:16:27;97387.19;;;3.63;100.00
29045;BME280;16133;49.486;12.176;2023-03-15T10:19:33;97369.34;;;4.14;100.00
29045;BME280;16133;49.486;12.176;2023-03-15T10:22:01;97400.03;;;4.33;100.00
29045;BME280;16133;49.486;12.176;2023-03-15T10:29:47;97393.59;;;5.01;100.00
29045;BME280;16133;49.486;12.176;2023-03-15T10:32:19;97398.19;;;5.44;100.00
29045;BME280;16133;49.486;12.176;2023-03-15T10:34:48;97395.81;;;5.51;100.00
29045;BME280;16133;49.486;12.176;2023-03-15T10:37:15;97404.66;;;5.22;100.00
29045;BME280;16133;49.486;12.176;2023-03-15T10:39:41;97406.09;;;5.44;100.00
29045;BME280;16133;49.486;12.176;2023-03-15T10:42:29;97407.91;;;5.44;100.00
29045;BME280;16133;49.486;12.176;2023-03-15T10:44:56;97402.50;;;5.81;100.00
29045;BME280;16133;49.486;12.176;2023-03-15T10:47:23;97395.56;;;6.33;100.00
29045;BME280;16133;49.486;12.176;2023-03-15T10:49:55;97397.91;;;6.87;100.00
29045;BME280;16133;49.486;12.176;2023-03-15T10:52:35;97398.22;;;7.18;100.00
29045;BME280;16133;49.486;12.176;2023-03-15T10:55:05;97403.91;;;7.31;100.00
29045;BME280;16133;49.486;12.176;2023-03-15T10:57:36;97399.84;;;7.61;100.00
29045;BME280;16133;49.486;12.176;2023-03-15T11:02:58;97403.25;;;8.03;97.72
29045;BME280;16133;49.486;12.176;2023-03-15T11:05:29;97400.91;;;7.84;98.64
29045;BME280;16133;49.486;12.176;2023-03-15T11:07:57;97397.06;;;7.70;94.75
29045;BME280;16133;49.486;12.176;2023-03-15T11:10:28;97394.94;;;7.66;98.77
29045;BME280;16133;49.486;12.176;2023-03-15T11:13:34;97399.56;;;7.72;90.81
29045;BME280;16133;49.486;12.176;2023-03-15T11:18:56;97409.50;;;7.36;86.65
29045;BME280;16133;49.486;12.176;2023-03-15T11:21:27;97400.50;;;6.79;86.48
29045;BME280;16133;49.486;12.176;2023-03-15T11:23:58;97399.47;;;6.46;90.58
29045;BME280;16133;49.486;12.176;2023-03-15T11:26:27;97397.22;;;6.51;88.56
29045;BME280;16133;49.486;12.176;2023-03-15T11:29:20;97391.13;;;6.33;88.96
29045;BME280;16133;49.486;12.176;2023-03-15T11:31:48;97392.50;;;6.02;90.17
29045;BME280;16133;49.486;12.176;2023-03-15T11:36:51;97391.00;;;6.60;86.00
29045;BME280;16133;49.486;12.176;2023-03-15T11:39:27;97388.31;;;6.78;86.73
29045;BME280;16133;49.486;12.176;2023-03-15T11:41:59;97397.41;;;6.58;81.12
29045;BME280;16133;49.486;12.176;2023-03-15T11:46:58;97433.41;;;5.34;87.11
29045;BME280;16133;49.486;12.176;2023-03-15T11:51:54;97430.72;;;4.32;100.00
29045;BME280;16133;49.486;12.176;2023-03-15T11:54:21;97428.22;;;4.31;100.00
29045;BME280;16133;49.486;12.176;2023-03-15T11:57:01;97417.00;;;4.48;100.00
29045;BME280;16133;49.486;12.176;2023-03-15T11:59:33;97425.91;;;4.74;100.00
29045;BME280;16133;49.486;12.176;2023-03-15T12:07:29;97418.50;;;5.52;100.00
29045;BME280;16133;49.486;12.176;2023-03-15T12:10:37;97412.41;;;5.51;100.00
29045;BME280;16133;49.486;12.176;2023-03-15T12:12:45;97416.13;;;5.31;100.00
29045;BME280;16133;49.486;12.176;2023-03-15T12:17:57;97410.44;;;5.08;100.00
29045;BME280;16133;49.486;12.176;2023-03-15T12:28:20;97406.91;;;4.90;100.00
29045;BME280;16133;49.486;12.176;2023-03-15T12:30:53;97402.53;;;5.08;100.00
29045;BME280;16133;49.486;12.176;2023-03-15T12:33:21;97402.91;;;4.86;100.00
29045;BME280;16133;49.486;12.176;2023-03-15T12:35:48;97405.28;;;4.79;100.00
29045;BME280;16133;49.486;12.176;2023-03-15T12:38:20;97408.13;;;4.59;100.00
29045;BME280;16133;49.486;12.176;2023-03-15T12:40:51;97400.66;;;4.45;100.00
29045;BME280;16133;49.486;12.176;2023-03-15T12:43:36;97405.94;;;4.35;100.00
29045;BME280;16133;49.486;12.176;2023-03-15T12:46:02;97407.91;;;4.23;100.00
29045;BME280;16133;49.486;12.176;2023-03-15T12:48:29;97402.13;;;4.01;100.00
29045;BME280;16133;49.486;12.176;2023-03-15T12:50:57;97412.34;;;3.94;100.00
29045;BME280;16133;49.486;12.176;2023-03-15T12:58:46;97416.78;;;3.94;100.00
29045;BME280;16133;49.486;12.176;2023-03-15T13:01:14;97421.19;;;3.93;100.00
29045;BME280;16133;49.486;12.176;2023-03-15T13:03:41;97416.38;;;3.98;100.00
29045;BME280;16133;49.486;12.176;2023-03-15T13:06:27;97408.75;;;3.95;100.00
29045;BME280;16133;49.486;12.176;2023-03-15T13:11:58;97405.41;;;3.83;100.00
29045;BME280;16133;49.486;12.176;2023-03-15T13:14:41;97419.69;;;3.91;100.00
29045;BME280;16133;49.486;12.176;2023-03-15T13:17:23;97413.19;;;3.95;100.00
29045;BME280;16133;49.486;12.176;2023-03-15T13:20:09;97419.00;;;3.98;100.00
29045;BME280;16133;49.486;12.176;2023-03-15T13:25:49;97415.91;;;4.31;100.00
29045;BME280;16133;49.486;12.176;2023-03-15T13:30:51;97413.66;;;4.56;100.00
29045;BME280;16133;49.486;12.176;2023-03-15T13:33:30;97424.31;;;4.91;99.68
29045;BME280;16133;49.486;12.176;2023-03-15T13:36:01;97420.44;;;4.95;95.49
29045;BME280;16133;49.486;12.176;2023-03-15T13:38:39;97428.06;;;4.98;96.12
29045;BME280;16133;49.486;12.176;2023-03-15T13:41:14;97416.41;;;5.01;91.97
29045;BME280;16133;49.486;12.176;2023-03-15T13:43:40;97428.31;;;4.95;95.86
29045;BME280;16133;49.486;12.176;2023-03-15T13:46:09;97427.47;;;5.04;98.72
29045;BME280;16133;49.486;12.176;2023-03-15T13:48:39;97427.59;;;5.40;94.71
29045;BME280;16133;49.486;12.176;2023-03-15T13:51:08;97421.91;;;5.62;90.94
29045;BME280;16133;49.486;12.176;2023-03-15T13:53:37;97425.34;;;5.90;86.96
29045;BME280;16133;49.486;12.176;2023-03-15T13:56:07;97424.22;;;5.92;86.56
29045;BME280;16133;49.486;12.176;2023-03-15T13:58:36;97427.81;;;5.91;88.09
29045;BME280;16133;49.486;12.176;2023-03-15T14:01:05;97430.00;;;5.96;86.76
29045;BME280;16133;49.486;12.176;2023-03-15T14:03:32;97427.47;;;5.86;88.99